createdAt,value
2022-11-14T00:07:37.268Z,1015.07
2022-11-14T00:17:38.575Z,1015.02
2022-11-14T00:27:37.626Z,1014.88
2022-11-14T00:37:38.881Z,1014.76
2022-11-14T00:47:38.110Z,1014.76
2022-11-14T00:57:39.993Z,1014.53
2022-11-14T01:07:38.427Z,1014.47
2022-11-14T01:17:40.036Z,1014.54
2022-11-14T01:27:38.916Z,1014.60
2022-11-14T01:37:41.127Z,1014.46
2022-11-14T01:47:39.176Z,1014.54
2022-11-14T01:57:39.549Z,1014.40
2022-11-14T02:07:39.635Z,1014.32
2022-11-14T02:17:39.929Z,1014.35
2022-11-14T02:27:39.971Z,1014.32
2022-11-14T02:37:40.403Z,1014.22
2022-11-14T02:47:40.642Z,1014.26
2022-11-14T02:57:40.551Z,1014.25
2022-11-14T03:07:40.773Z,1014.24
2022-11-14T03:17:41.145Z,1014.37
2022-11-14T03:27:41.327Z,1014.37
2022-11-14T03:37:41.704Z,1014.34
2022-11-14T03:47:41.653Z,1014.36
2022-11-14T03:57:41.881Z,1014.41
2022-11-14T04:07:41.906Z,1014.40
2022-11-14T04:17:43.265Z,1014.30
2022-11-14T04:27:42.295Z,1014.10
2022-11-14T04:37:42.605Z,1013.85
2022-11-14T04:47:42.642Z,1013.66
2022-11-14T04:57:42.976Z,1013.53
2022-11-14T05:07:43.006Z,1013.55
2022-11-14T05:17:43.355Z,1013.43
2022-11-14T05:27:43.484Z,1013.29
2022-11-14T05:37:43.722Z,1013.16
2022-11-14T05:47:43.796Z,1013.07
2022-11-14T05:57:43.995Z,1013.07
2022-11-14T06:07:44.074Z,1013.02
2022-11-14T06:17:44.351Z,1012.83
2022-11-14T06:27:44.391Z,1012.88
2022-11-14T06:37:44.644Z,1012.93
2022-11-14T06:47:44.878Z,1013.06
2022-11-14T06:57:45.211Z,1013.09
2022-11-14T07:07:45.237Z,1013.12
2022-11-14T07:17:45.575Z,1013.10
2022-11-14T07:27:45.622Z,1013.12
2022-11-14T07:37:45.943Z,1013.12
2022-11-14T07:47:45.962Z,1013.18
2022-11-14T07:57:49.158Z,1013.39
2022-11-14T08:07:46.321Z,1013.38
2022-11-14T08:17:46.619Z,1013.55
2022-11-14T08:27:46.648Z,1013.64
2022-11-14T08:37:46.976Z,1013.76
2022-11-14T08:47:46.996Z,1013.92
2022-11-14T08:57:49.569Z,1014.25
2022-11-14T09:07:47.446Z,1014.36
2022-11-14T09:17:47.694Z,1014.43
2022-11-14T09:27:47.915Z,1014.66
2022-11-14T09:37:48.179Z,1014.89
2022-11-14T09:47:48.402Z,1015.42
2022-11-14T09:57:48.636Z,1015.26
2022-11-14T10:07:48.860Z,1015.00
2022-11-14T10:17:49.209Z,1014.77
2022-11-14T10:27:55.328Z,1014.83
2022-11-14T10:37:50.496Z,1014.74
2022-11-14T10:47:50.317Z,1014.65
2022-11-14T10:57:49.967Z,1014.60
2022-11-14T11:07:50.245Z,1014.50
2022-11-14T11:17:50.261Z,1014.45
2022-11-14T11:27:50.520Z,1014.53
2022-11-14T11:37:50.740Z,1014.31
2022-11-14T11:47:50.979Z,1014.39
2022-11-14T11:57:51.268Z,1014.27
2022-11-14T12:07:51.355Z,1014.21
2022-11-14T12:17:51.377Z,1014.09
2022-11-14T12:27:53.940Z,1013.96
2022-11-14T12:37:55.635Z,1013.82
2022-11-14T12:47:52.062Z,1013.83
2022-11-14T12:57:52.380Z,1013.82
2022-11-14T13:07:52.411Z,1013.74
2022-11-14T13:17:52.749Z,1013.71
2022-11-14T13:28:07.332Z,1013.56
2022-11-14T13:37:56.359Z,1013.52
2022-11-14T13:47:53.307Z,1013.49
2022-11-14T13:57:53.348Z,1013.42
2022-11-14T14:07:53.466Z,1013.39
2022-11-14T14:17:53.510Z,1013.34
2022-11-14T14:27:53.857Z,1013.42
2022-11-14T14:38:02.927Z,1013.49
2022-11-14T14:47:53.949Z,1013.48
2022-11-14T14:57:54.310Z,1013.49
2022-11-14T15:07:54.338Z,1013.45
2022-11-14T15:17:54.606Z,1013.56
2022-11-14T15:27:54.612Z,1013.63
2022-11-14T15:37:54.936Z,1013.73
2022-11-14T15:47:54.977Z,1013.66
2022-11-14T15:58:20.966Z,1013.67
2022-11-14T22:09:08.161Z,1013.42
2022-11-14T22:19:08.369Z,1013.39
2022-11-14T22:29:08.625Z,1013.34
2022-11-14T22:39:08.855Z,1013.39
2022-11-14T22:49:09.119Z,1013.42
2022-11-14T22:59:09.362Z,1013.43
2022-11-14T23:09:09.756Z,1013.44
2022-11-14T23:19:11.614Z,1013.31
2022-11-14T23:29:12.177Z,1013.25
2022-11-14T23:39:10.292Z,1013.12
2022-11-14T23:49:10.488Z,1013.07
2022-11-14T23:59:10.656Z,1012.91
